sensor_id;sensor_type;location;lat;lon;timestamp;pressure;altitude;pressure_sealevel;temperature;humidity
38054;BME280;23859;50.672;7.164;2022-09-27T00:02:08;98754.84;;;11.16;100.00
38054;BME280;23859;50.672;7.164;2022-09-27T00:04:34;98762.41;;;11.13;100.00
38054;BME280;23859;50.672;7.164;2022-09-27T00:07:00;98756.22;;;11.12;100.00
38054;BME280;23859;50.672;7.164;2022-09-27T00:09:27;98748.44;;;11.25;100.00
38054;BME280;23859;50.672;7.164;2022-09-27T00:11:53;98760.25;;;11.23;100.00
38054;BME280;23859;50.672;7.164;2022-09-27T00:14:19;98763.66;;;11.31;100.00
38054;BME280;23859;50.672;7.164;2022-09-27T00:16:45;98764.66;;;11.30;100.00
38054;BME280;23859;50.672;7.164;2022-09-27T00:19:21;98766.91;;;11.33;100.00
38054;BME280;23859;50.672;7.164;2022-09-27T00:21:49;98767.66;;;11.27;100.00
38054;BME280;23859;50.672;7.164;2022-09-27T00:24:20;98775.09;;;11.31;100.00
38054;BME280;23859;50.672;7.164;2022-09-27T00:26:48;98777.63;;;11.39;100.00
38054;BME280;23859;50.672;7.164;2022-09-27T00:29:15;98788.38;;;11.31;100.00
38054;BME280;23859;50.672;7.164;2022-09-27T00:31:42;98791.13;;;11.38;100.00
38054;BME280;23859;50.672;7.164;2022-09-27T00:34:18;98785.28;;;11.28;100.00
38054;BME280;23859;50.672;7.164;2022-09-27T00:36:45;98793.78;;;11.38;100.00
38054;BME280;23859;50.672;7.164;2022-09-27T00:39:11;98796.16;;;11.33;100.00
38054;BME280;23859;50.672;7.164;2022-09-27T00:41:38;98799.47;;;11.35;100.00
38054;BME280;23859;50.672;7.164;2022-09-27T00:47:02;98803.63;;;11.23;100.00
38054;BME280;23859;50.672;7.164;2022-09-27T00:52:08;98814.53;;;11.28;100.00
38054;BME280;23859;50.672;7.164;2022-09-27T00:54:39;98797.28;;;11.24;100.00
38054;BME280;23859;50.672;7.164;2022-09-27T00:57:08;98814.63;;;11.20;100.00
38054;BME280;23859;50.672;7.164;2022-09-27T00:59:40;98815.63;;;11.19;100.00
38054;BME280;23859;50.672;7.164;2022-09-27T01:02:11;98814.97;;;11.31;100.00
38054;BME280;23859;50.672;7.164;2022-09-27T01:04:38;98819.56;;;11.23;100.00
38054;BME280;23859;50.672;7.164;2022-09-27T01:07:05;98827.34;;;11.25;100.00
38054;BME280;23859;50.672;7.164;2022-09-27T01:09:32;98819.69;;;11.15;100.00
38054;BME280;23859;50.672;7.164;2022-09-27T01:12:22;98821.56;;;11.21;100.00
38054;BME280;23859;50.672;7.164;2022-09-27T01:28:54;98828.84;;;11.13;100.00
38054;BME280;23859;50.672;7.164;2022-09-27T01:31:42;98832.59;;;11.18;100.00
38054;BME280;23859;50.672;7.164;2022-09-27T01:40:07;98839.19;;;11.08;100.00
38054;BME280;23859;50.672;7.164;2022-09-27T01:42:45;98828.84;;;11.13;100.00
38054;BME280;23859;50.672;7.164;2022-09-27T01:45:25;98831.13;;;11.16;100.00
38054;BME280;23859;50.672;7.164;2022-09-27T01:47:58;98833.50;;;10.96;100.00
38054;BME280;23859;50.672;7.164;2022-09-27T01:50:34;98835.25;;;10.75;100.00
38054;BME280;23859;50.672;7.164;2022-09-27T01:53:16;98825.88;;;10.64;100.00
38054;BME280;23859;50.672;7.164;2022-09-27T01:55:44;98840.09;;;10.71;100.00
38054;BME280;23859;50.672;7.164;2022-09-27T01:58:19;98837.88;;;10.61;100.00
38054;BME280;23859;50.672;7.164;2022-09-27T02:00:48;98837.06;;;10.74;100.00
38054;BME280;23859;50.672;7.164;2022-09-27T02:03:22;98837.34;;;10.79;100.00
38054;BME280;23859;50.672;7.164;2022-09-27T02:05:53;98846.59;;;10.69;100.00
38054;BME280;23859;50.672;7.164;2022-09-27T02:08:33;98840.81;;;10.65;100.00
38054;BME280;23859;50.672;7.164;2022-09-27T02:11:05;98840.25;;;10.56;100.00
38054;BME280;23859;50.672;7.164;2022-09-27T02:19:20;98840.56;;;10.53;100.00
38054;BME280;23859;50.672;7.164;2022-09-27T02:21:54;98837.63;;;10.48;100.00
38054;BME280;23859;50.672;7.164;2022-09-27T02:24:32;98845.25;;;10.51;100.00
38054;BME280;23859;50.672;7.164;2022-09-27T02:27:14;98833.28;;;10.55;100.00
38054;BME280;23859;50.672;7.164;2022-09-27T02:29:48;98837.22;;;10.59;100.00
38054;BME280;23859;50.672;7.164;2022-09-27T02:32:16;98840.09;;;10.71;100.00
38054;BME280;23859;50.672;7.164;2022-09-27T02:34:43;98840.44;;;10.68;100.00
38054;BME280;23859;50.672;7.164;2022-09-27T02:37:10;98839.38;;;10.77;100.00
38054;BME280;23859;50.672;7.164;2022-09-27T02:39:37;98841.09;;;10.70;100.00
38054;BME280;23859;50.672;7.164;2022-09-27T02:42:03;98856.84;;;10.72;100.00
38054;BME280;23859;50.672;7.164;2022-09-27T02:44:30;98845.38;;;10.57;100.00
38054;BME280;23859;50.672;7.164;2022-09-27T02:49:59;98858.56;;;10.65;100.00
38054;BME280;23859;50.672;7.164;2022-09-27T02:58:53;98867.38;;;10.65;100.00
38054;BME280;23859;50.672;7.164;2022-09-27T03:01:39;98872.25;;;10.76;100.00
38054;BME280;23859;50.672;7.164;2022-09-27T03:04:34;98864.47;;;10.75;100.00
38054;BME280;23859;50.672;7.164;2022-09-27T03:07:02;98865.75;;;10.79;100.00
38054;BME280;23859;50.672;7.164;2022-09-27T03:09:39;98869.47;;;10.70;100.00
38054;BME280;23859;50.672;7.164;2022-09-27T03:12:05;98872.53;;;10.81;100.00
38054;BME280;23859;50.672;7.164;2022-09-27T03:14:31;98873.75;;;10.93;100.00
38054;BME280;23859;50.672;7.164;2022-09-27T03:16:57;98754.19;;;10.28;100.00
38054;BME280;23859;50.672;7.164;2022-09-27T03:19:23;98874.38;;;10.95;100.00
38054;BME280;23859;50.672;7.164;2022-09-27T03:21:50;98873.84;;;11.00;100.00
38054;BME280;23859;50.672;7.164;2022-09-27T03:24:16;98883.06;;;10.89;100.00
38054;BME280;23859;50.672;7.164;2022-09-27T03:26:42;98879.31;;;10.84;100.00
38054;BME280;23859;50.672;7.164;2022-09-27T03:29:08;98888.94;;;10.85;100.00
38054;BME280;23859;50.672;7.164;2022-09-27T03:31:34;98894.25;;;10.85;100.00
38054;BME280;23859;50.672;7.164;2022-09-27T03:34:00;98888.00;;;10.78;100.00
38054;BME280;23859;50.672;7.164;2022-09-27T03:36:26;98889.63;;;10.64;100.00
38054;BME280;23859;50.672;7.164;2022-09-27T03:38:52;98890.63;;;10.63;100.00
38054;BME280;23859;50.672;7.164;2022-09-27T03:41:18;98891.19;;;10.73;100.00
38054;BME280;23859;50.672;7.164;2022-09-27T03:43:44;98893.34;;;10.56;100.00
38054;BME280;23859;50.672;7.164;2022-09-27T03:46:10;98889.63;;;10.64;100.00
38054;BME280;23859;50.672;7.164;2022-09-27T03:48:37;98898.25;;;10.44;100.00
38054;BME280;23859;50.672;7.164;2022-09-27T03:51:03;98904.03;;;10.48;100.00
38054;BME280;23859;50.672;7.164;2022-09-27T03:53:29;98907.81;;;10.53;100.00
38054;BME280;23859;50.672;7.164;2022-09-27T03:55:55;98900.78;;;10.60;100.00
38054;BME280;23859;50.672;7.164;2022-09-27T03:58:22;98902.91;;;10.64;100.00
38054;BME280;23859;50.672;7.164;2022-09-27T04:00:48;98905.50;;;10.72;100.00
38054;BME280;23859;50.672;7.164;2022-09-27T04:03:14;98911.81;;;10.71;100.00
38054;BME280;23859;50.672;7.164;2022-09-27T04:05:40;98913.13;;;10.53;100.00
38054;BME280;23859;50.672;7.164;2022-09-27T04:08:06;98910.13;;;10.34;100.00
38054;BME280;23859;50.672;7.164;2022-09-27T04:10:32;98915.75;;;10.31;100.00
38054;BME280;23859;50.672;7.164;2022-09-27T04:12:58;98916.06;;;10.36;100.00
38054;BME280;23859;50.672;7.164;2022-09-27T04:15:25;98923.69;;;10.39;100.00
38054;BME280;23859;50.672;7.164;2022-09-27T04:17:51;98916.94;;;10.28;100.00
38054;BME280;23859;50.672;7.164;2022-09-27T04:20:17;98915.28;;;10.27;100.00
38054;BME280;23859;50.672;7.164;2022-09-27T04:22:44;98914.34;;;10.43;100.00
38054;BME280;23859;50.672;7.164;2022-09-27T04:25:11;98914.09;;;10.30;100.00
38054;BME280;23859;50.672;7.164;2022-09-27T04:27:37;98913.69;;;10.41;100.00
38054;BME280;23859;50.672;7.164;2022-09-27T04:30:04;98915.53;;;10.40;100.00
38054;BME280;23859;50.672;7.164;2022-09-27T04:32:31;98915.13;;;10.29;100.00
38054;BME280;23859;50.672;7.164;2022-09-27T04:34:57;98914.09;;;10.30;100.00
38054;BME280;23859;50.672;7.164;2022-09-27T04:37:41;98916.25;;;10.34;100.00
38054;BME280;23859;50.672;7.164;2022-09-27T04:40:09;98921.06;;;10.31;100.00
38054;BME280;23859;50.672;7.164;2022-09-27T04:42:35;98920.59;;;10.27;100.00
38054;BME280;23859;50.672;7.164;2022-09-27T04:45:01;98928.56;;;10.27;100.00
38054;BME280;23859;50.672;7.164;2022-09-27T04:47:27;98931.47;;;10.18;100.00
38054;BME280;23859;50.672;7.164;2022-09-27T04:49:53;98937.81;;;10.09;100.00
38054;BME280;23859;50.672;7.164;2022-09-27T04:52:19;98942.34;;;9.93;100.00
38054;BME280;23859;50.672;7.164;2022-09-27T04:54:46;98943.53;;;9.90;100.00
38054;BME280;23859;50.672;7.164;2022-09-27T04:57:12;98942.50;;;9.99;100.00
38054;BME280;23859;50.672;7.164;2022-09-27T04:59:39;98947.97;;;10.05;100.00
38054;BME280;23859;50.672;7.164;2022-09-27T05:02:07;98944.94;;;10.08;100.00
38054;BME280;23859;50.672;7.164;2022-09-27T05:04:33;98938.91;;;9.84;100.00
38054;BME280;23859;50.672;7.164;2022-09-27T05:06:59;98951.97;;;9.93;100.00
38054;BME280;23859;50.672;7.164;2022-09-27T05:09:25;98953.53;;;9.80;100.00
38054;BME280;23859;50.672;7.164;2022-09-27T05:11:51;98953.78;;;9.93;100.00
38054;BME280;23859;50.672;7.164;2022-09-27T05:14:17;98955.19;;;9.81;100.00
38054;BME280;23859;50.672;7.164;2022-09-27T05:16:43;98969.25;;;9.82;100.00
38054;BME280;23859;50.672;7.164;2022-09-27T05:19:09;98967.16;;;9.69;100.00
38054;BME280;23859;50.672;7.164;2022-09-27T05:21:35;98974.94;;;9.71;100.00
38054;BME280;23859;50.672;7.164;2022-09-27T05:24:01;98981.03;;;9.79;100.00
38054;BME280;23859;50.672;7.164;2022-09-27T05:26:27;98976.09;;;9.68;100.00
38054;BME280;23859;50.672;7.164;2022-09-27T05:28:53;98977.41;;;9.72;100.00
38054;BME280;23859;50.672;7.164;2022-09-27T05:31:19;98987.97;;;9.88;100.00
38054;BME280;23859;50.672;7.164;2022-09-27T05:33:45;98983.97;;;9.92;100.00
38054;BME280;23859;50.672;7.164;2022-09-27T05:36:11;98980.84;;;9.89;100.00
38054;BME280;23859;50.672;7.164;2022-09-27T05:38:37;98980.97;;;10.03;100.00
38054;BME280;23859;50.672;7.164;2022-09-27T05:41:04;98982.97;;;10.01;100.00
38054;BME280;23859;50.672;7.164;2022-09-27T05:43:30;98981.97;;;9.94;100.00
38054;BME280;23859;50.672;7.164;2022-09-27T05:45:57;98999.25;;;9.82;100.00
38054;BME280;23859;50.672;7.164;2022-09-27T05:48:23;98999.91;;;9.92;100.00
38054;BME280;23859;50.672;7.164;2022-09-27T05:50:49;98997.13;;;9.78;100.00
38054;BME280;23859;50.672;7.164;2022-09-27T05:53:15;99008.41;;;9.72;100.00
38054;BME280;23859;50.672;7.164;2022-09-27T05:55:42;99003.75;;;9.74;100.00
38054;BME280;23859;50.672;7.164;2022-09-27T05:58:09;99011.72;;;9.74;100.00
38054;BME280;23859;50.672;7.164;2022-09-27T06:00:36;99009.22;;;9.80;100.00
38054;BME280;23859;50.672;7.164;2022-09-27T06:03:04;99009.84;;;9.98;100.00
38054;BME280;23859;50.672;7.164;2022-09-27T06:05:35;99013.00;;;9.93;100.00
38054;BME280;23859;50.672;7.164;2022-09-27T06:08:04;99012.34;;;9.99;100.00
38054;BME280;23859;50.672;7.164;2022-09-27T06:10:31;99007.84;;;10.00;100.00
38054;BME280;23859;50.672;7.164;2022-09-27T06:13:05;99007.56;;;9.79;100.00
38054;BME280;23859;50.672;7.164;2022-09-27T06:15:33;99010.81;;;10.05;100.00
38054;BME280;23859;50.672;7.164;2022-09-27T06:18:10;99012.69;;;9.89;100.00
38054;BME280;23859;50.672;7.164;2022-09-27T06:20:38;99010.69;;;9.98;100.00
38054;BME280;23859;50.672;7.164;2022-09-27T06:23:06;99018.63;;;9.91;100.00
38054;BME280;23859;50.672;7.164;2022-09-27T06:25:33;99019.16;;;9.86;100.00
38054;BME280;23859;50.672;7.164;2022-09-27T06:28:00;99031.91;;;9.98;100.00
38054;BME280;23859;50.672;7.164;2022-09-27T06:30:27;99030.34;;;10.12;100.00
38054;BME280;23859;50.672;7.164;2022-09-27T06:32:57;99032.16;;;10.11;100.00
38054;BME280;23859;50.672;7.164;2022-09-27T06:35:23;99030.19;;;10.13;100.00
38054;BME280;23859;50.672;7.164;2022-09-27T06:37:50;99035.28;;;10.23;100.00
38054;BME280;23859;50.672;7.164;2022-09-27T06:40:16;99020.06;;;10.17;100.00
38054;BME280;23859;50.672;7.164;2022-09-27T06:42:43;99030.59;;;10.33;100.00
38054;BME280;23859;50.672;7.164;2022-09-27T06:45:09;99024.56;;;10.69;100.00
38054;BME280;23859;50.672;7.164;2022-09-27T06:47:36;99023.09;;;10.66;100.00
38054;BME280;23859;50.672;7.164;2022-09-27T06:50:04;99033.47;;;10.54;100.00
38054;BME280;23859;50.672;7.164;2022-09-27T06:52:31;99033.28;;;10.55;100.00
38054;BME280;23859;50.672;7.164;2022-09-27T06:54:57;99034.75;;;10.58;100.00
38054;BME280;23859;50.672;7.164;2022-09-27T06:57:23;99033.47;;;10.54;100.00
38054;BME280;23859;50.672;7.164;2022-09-27T07:00:10;99048.78;;;10.74;100.00
38054;BME280;23859;50.672;7.164;2022-09-27T07:02:49;99044.94;;;10.99;100.00
38054;BME280;23859;50.672;7.164;2022-09-27T07:05:16;99043.00;;;11.15;100.00
38054;BME280;23859;50.672;7.164;2022-09-27T07:07:42;99052.47;;;11.32;100.00
38054;BME280;23859;50.672;7.164;2022-09-27T07:10:13;99055.00;;;11.48;100.00
38054;BME280;23859;50.672;7.164;2022-09-27T07:12:39;99067.63;;;11.68;100.00
38054;BME280;23859;50.672;7.164;2022-09-27T07:15:06;99066.97;;;11.52;97.46
38054;BME280;23859;50.672;7.164;2022-09-27T07:17:32;99064.16;;;11.45;97.50
38054;BME280;23859;50.672;7.164;2022-09-27T07:20:00;99059.94;;;11.73;99.32
38054;BME280;23859;50.672;7.164;2022-09-27T07:22:27;99068.16;;;11.64;100.00
38054;BME280;23859;50.672;7.164;2022-09-27T07:24:55;99070.63;;;11.51;98.95
38054;BME280;23859;50.672;7.164;2022-09-27T07:27:21;99072.41;;;11.36;100.00
38054;BME280;23859;50.672;7.164;2022-09-27T07:29:49;99071.25;;;11.53;100.00
38054;BME280;23859;50.672;7.164;2022-09-27T07:32:15;99069.50;;;11.23;96.70
38054;BME280;23859;50.672;7.164;2022-09-27T07:34:41;99072.16;;;11.23;98.78
38054;BME280;23859;50.672;7.164;2022-09-27T07:37:07;99071.31;;;11.45;99.15
38054;BME280;23859;50.672;7.164;2022-09-27T07:39:33;99061.06;;;11.79;94.59
38054;BME280;23859;50.672;7.164;2022-09-27T07:42:00;99069.81;;;11.65;100.00
38054;BME280;23859;50.672;7.164;2022-09-27T07:44:27;99066.28;;;11.50;97.38
38054;BME280;23859;50.672;7.164;2022-09-27T07:46:53;99070.97;;;11.85;96.23
38054;BME280;23859;50.672;7.164;2022-09-27T07:49:19;99071.88;;;12.06;98.50
38054;BME280;23859;50.672;7.164;2022-09-27T07:51:45;99076.28;;;12.42;99.02
38054;BME280;23859;50.672;7.164;2022-09-27T07:54:11;99070.69;;;12.23;93.65
38054;BME280;23859;50.672;7.164;2022-09-27T07:56:37;99078.22;;;12.34;90.19
38054;BME280;23859;50.672;7.164;2022-09-27T07:59:03;99086.84;;;12.36;93.27
38054;BME280;23859;50.672;7.164;2022-09-27T08:01:29;99092.16;;;12.36;96.13
38054;BME280;23859;50.672;7.164;2022-09-27T08:03:55;99094.94;;;12.42;93.17
38054;BME280;23859;50.672;7.164;2022-09-27T08:06:23;99091.09;;;12.30;89.01
38054;BME280;23859;50.672;7.164;2022-09-27T08:08:50;99101.81;;;12.37;91.25
38054;BME280;23859;50.672;7.164;2022-09-27T08:11:17;99097.28;;;12.66;93.00
38054;BME280;23859;50.672;7.164;2022-09-27T08:13:44;99100.19;;;12.21;88.45
38054;BME280;23859;50.672;7.164;2022-09-27T08:16:11;99107.06;;;12.45;92.93
38054;BME280;23859;50.672;7.164;2022-09-27T08:18:38;99104.81;;;12.62;90.60
38054;BME280;23859;50.672;7.164;2022-09-27T08:21:04;99105.66;;;12.63;87.80
38054;BME280;23859;50.672;7.164;2022-09-27T08:23:31;99112.72;;;12.70;92.36
38054;BME280;23859;50.672;7.164;2022-09-27T08:25:57;99108.84;;;12.73;88.78
38054;BME280;23859;50.672;7.164;2022-09-27T08:28:25;99103.66;;;13.00;87.17
38054;BME280;23859;50.672;7.164;2022-09-27T08:30:51;99100.44;;;13.05;88.92
38054;BME280;23859;50.672;7.164;2022-09-27T08:33:18;99107.47;;;12.77;86.41
38054;BME280;23859;50.672;7.164;2022-09-27T08:35:44;99106.72;;;12.83;88.16
38054;BME280;23859;50.672;7.164;2022-09-27T08:38:11;99107.72;;;12.82;88.62
38054;BME280;23859;50.672;7.164;2022-09-27T08:48:43;99112.31;;;13.02;82.52
38054;BME280;23859;50.672;7.164;2022-09-27T08:51:14;99119.81;;;13.13;83.03
38054;BME280;23859;50.672;7.164;2022-09-27T08:53:54;99115.66;;;12.90;85.33
38054;BME280;23859;50.672;7.164;2022-09-27T08:56:22;99118.56;;;13.09;82.76
38054;BME280;23859;50.672;7.164;2022-09-27T08:58:53;99114.34;;;12.86;82.60
38054;BME280;23859;50.672;7.164;2022-09-27T09:01:22;99115.13;;;12.65;80.73
38054;BME280;23859;50.672;7.164;2022-09-27T09:03:52;99116.09;;;12.79;85.44
38054;BME280;23859;50.672;7.164;2022-09-27T09:06:25;99114.78;;;13.04;83.44
38054;BME280;23859;50.672;7.164;2022-09-27T09:18:18;99110.50;;;13.24;79.50
38054;BME280;23859;50.672;7.164;2022-09-27T09:24:11;99111.09;;;13.05;87.84
38054;BME280;23859;50.672;7.164;2022-09-27T09:26:48;99113.28;;;13.16;86.45
38054;BME280;23859;50.672;7.164;2022-09-27T09:32:18;99100.63;;;13.24;86.28
38054;BME280;23859;50.672;7.164;2022-09-27T09:35:02;99089.31;;;13.43;81.34
38054;BME280;23859;50.672;7.164;2022-09-27T09:37:48;99099.84;;;13.24;77.56
38054;BME280;23859;50.672;7.164;2022-09-27T09:40:31;99094.72;;;13.49;80.18
38054;BME280;23859;50.672;7.164;2022-09-27T09:45:45;99085.41;;;14.21;76.47
38054;BME280;23859;50.672;7.164;2022-09-27T09:48:34;99085.63;;;14.60;78.27
38054;BME280;23859;50.672;7.164;2022-09-27T09:51:05;99071.81;;;15.03;73.81
38054;BME280;23859;50.672;7.164;2022-09-27T09:53:55;99076.31;;;14.96;72.37
38054;BME280;23859;50.672;7.164;2022-09-27T09:56:27;99070.88;;;15.62;70.66
38054;BME280;23859;50.672;7.164;2022-09-27T10:01:39;99066.88;;;15.13;74.12
38054;BME280;23859;50.672;7.164;2022-09-27T10:04:09;99073.78;;;14.75;70.85
38054;BME280;23859;50.672;7.164;2022-09-27T10:06:37;99068.16;;;14.63;75.16
38054;BME280;23859;50.672;7.164;2022-09-27T10:09:03;99075.22;;;14.31;75.05
38054;BME280;23859;50.672;7.164;2022-09-27T10:11:36;99075.94;;;14.52;75.59
38054;BME280;23859;50.672;7.164;2022-09-27T10:14:12;99063.44;;;14.65;72.66
38054;BME280;23859;50.672;7.164;2022-09-27T10:16:40;99065.63;;;15.02;73.07
38054;BME280;23859;50.672;7.164;2022-09-27T10:19:09;99065.09;;;15.58;71.30
38054;BME280;23859;50.672;7.164;2022-09-27T10:21:39;99068.94;;;15.04;65.98
38054;BME280;23859;50.672;7.164;2022-09-27T10:24:11;99072.56;;;14.90;71.24
38054;BME280;23859;50.672;7.164;2022-09-27T10:26:39;99056.31;;;14.85;69.57
38054;BME280;23859;50.672;7.164;2022-09-27T10:29:33;99072.97;;;14.81;72.62
38054;BME280;23859;50.672;7.164;2022-09-27T10:32:00;99071.19;;;14.48;69.83
38054;BME280;23859;50.672;7.164;2022-09-27T10:34:37;99070.72;;;14.84;70.88
38054;BME280;23859;50.672;7.164;2022-09-27T10:37:18;99070.94;;;14.89;71.76
38054;BME280;23859;50.672;7.164;2022-09-27T10:39:47;99061.44;;;14.80;71.09
38054;BME280;23859;50.672;7.164;2022-09-27T10:42:32;99072.25;;;14.60;69.29
38054;BME280;23859;50.672;7.164;2022-09-27T10:45:19;99068.31;;;14.49;71.53
38054;BME280;23859;50.672;7.164;2022-09-27T10:47:47;99074.13;;;14.59;73.39
38054;BME280;23859;50.672;7.164;2022-09-27T10:50:36;99069.34;;;14.14;71.09
38054;BME280;23859;50.672;7.164;2022-09-27T10:53:16;99061.19;;;14.63;72.17
38054;BME280;23859;50.672;7.164;2022-09-27T10:55:48;99056.78;;;14.42;70.32
38054;BME280;23859;50.672;7.164;2022-09-27T10:58:28;99068.38;;;14.68;69.94
38054;BME280;23859;50.672;7.164;2022-09-27T11:01:00;99059.41;;;14.82;69.96
38054;BME280;23859;50.672;7.164;2022-09-27T11:03:30;99061.13;;;15.09;71.17
38054;BME280;23859;50.672;7.164;2022-09-27T11:05:57;99052.44;;;15.07;68.04
38054;BME280;23859;50.672;7.164;2022-09-27T11:08:28;99050.63;;;15.14;67.61
38054;BME280;23859;50.672;7.164;2022-09-27T11:13:28;99046.97;;;14.56;65.92
38054;BME280;23859;50.672;7.164;2022-09-27T11:27:54;99061.13;;;14.50;70.30
38054;BME280;23859;50.672;7.164;2022-09-27T11:30:23;99053.88;;;14.44;71.06
38054;BME280;23859;50.672;7.164;2022-09-27T11:33:16;99057.31;;;14.25;72.20
38054;BME280;23859;50.672;7.164;2022-09-27T11:39:08;99059.44;;;14.08;69.61
38054;BME280;23859;50.672;7.164;2022-09-27T12:04:39;99069.56;;;14.13;72.42
38054;BME280;23859;50.672;7.164;2022-09-27T12:07:15;99066.59;;;14.35;70.90
38054;BME280;23859;50.672;7.164;2022-09-27T12:09:45;99064.19;;;14.47;71.34
38054;BME280;23859;50.672;7.164;2022-09-27T12:12:17;99068.44;;;14.07;70.87
38054;BME280;23859;50.672;7.164;2022-09-27T12:14:49;99068.28;;;13.54;71.17
38054;BME280;23859;50.672;7.164;2022-09-27T12:17:23;99064.88;;;13.94;71.80
38054;BME280;23859;50.672;7.164;2022-09-27T12:19:52;99064.69;;;13.96;70.62
38054;BME280;23859;50.672;7.164;2022-09-27T12:22:26;99071.50;;;14.32;69.90
38054;BME280;23859;50.672;7.164;2022-09-27T12:24:53;99066.44;;;14.43;70.87
38054;BME280;23859;50.672;7.164;2022-09-27T12:27:38;99069.94;;;14.44;70.31
38054;BME280;23859;50.672;7.164;2022-09-27T12:30:10;99070.31;;;14.07;69.74
38054;BME280;23859;50.672;7.164;2022-09-27T12:32:54;99065.44;;;14.10;70.94
38054;BME280;23859;50.672;7.164;2022-09-27T12:35:28;99064.25;;;14.19;69.35
38054;BME280;23859;50.672;7.164;2022-09-27T12:41:02;99050.44;;;14.50;68.56
38054;BME280;23859;50.672;7.164;2022-09-27T12:43:30;99056.78;;;14.49;70.77
38054;BME280;23859;50.672;7.164;2022-09-27T12:48:46;99049.28;;;14.71;71.28
38054;BME280;23859;50.672;7.164;2022-09-27T12:51:18;99053.81;;;14.77;67.43
38054;BME280;23859;50.672;7.164;2022-09-27T12:57:00;99048.19;;;14.60;67.52
38054;BME280;23859;50.672;7.164;2022-09-27T12:59:42;99046.16;;;14.62;67.67
38054;BME280;23859;50.672;7.164;2022-09-27T13:08:44;99039.16;;;14.61;65.48
38054;BME280;23859;50.672;7.164;2022-09-27T13:14:03;99034.34;;;15.16;66.06
38054;BME280;23859;50.672;7.164;2022-09-27T13:16:30;99035.47;;;14.62;68.15
38054;BME280;23859;50.672;7.164;2022-09-27T13:18:56;99043.06;;;14.18;64.72
38054;BME280;23859;50.672;7.164;2022-09-27T13:21:53;99040.31;;;14.39;65.89
38054;BME280;23859;50.672;7.164;2022-09-27T13:26:57;99031.91;;;14.48;66.70
38054;BME280;23859;50.672;7.164;2022-09-27T13:29:30;99041.63;;;14.68;68.05
38054;BME280;23859;50.672;7.164;2022-09-27T13:34:45;99046.28;;;14.41;68.66
38054;BME280;23859;50.672;7.164;2022-09-27T13:45:58;99057.34;;;14.38;73.02
38054;BME280;23859;50.672;7.164;2022-09-27T13:48:40;98943.50;;;14.03;70.48
38054;BME280;23859;50.672;7.164;2022-09-27T13:54:35;99069.84;;;13.97;71.11
38054;BME280;23859;50.672;7.164;2022-09-27T13:57:33;99062.38;;;13.86;73.91
38054;BME280;23859;50.672;7.164;2022-09-27T13:59:50;99060.91;;;13.84;74.74
38054;BME280;23859;50.672;7.164;2022-09-27T14:02:24;99067.00;;;13.71;78.07
38054;BME280;23859;50.672;7.164;2022-09-27T14:04:52;99073.97;;;13.72;79.09
38054;BME280;23859;50.672;7.164;2022-09-27T14:07:26;99078.69;;;13.70;80.54
38054;BME280;23859;50.672;7.164;2022-09-27T14:09:57;99076.75;;;13.58;83.41
38054;BME280;23859;50.672;7.164;2022-09-27T14:12:31;99080.78;;;13.54;81.26
38054;BME280;23859;50.672;7.164;2022-09-27T14:14:59;99092.91;;;13.29;84.17
38054;BME280;23859;50.672;7.164;2022-09-27T14:17:26;99093.38;;;12.97;85.94
38054;BME280;23859;50.672;7.164;2022-09-27T14:19:52;99087.47;;;12.52;82.37
38054;BME280;23859;50.672;7.164;2022-09-27T14:22:23;99097.69;;;11.91;85.10
38054;BME280;23859;50.672;7.164;2022-09-27T14:24:52;99098.00;;;11.59;88.50
38054;BME280;23859;50.672;7.164;2022-09-27T14:27:23;99095.38;;;11.88;89.76
38054;BME280;23859;50.672;7.164;2022-09-27T14:29:53;99092.81;;;11.95;90.13
38054;BME280;23859;50.672;7.164;2022-09-27T14:32:24;99089.69;;;11.77;89.92
38054;BME280;23859;50.672;7.164;2022-09-27T14:37:32;99088.50;;;12.37;87.33
38054;BME280;23859;50.672;7.164;2022-09-27T14:40:03;99087.47;;;12.52;85.24
38054;BME280;23859;50.672;7.164;2022-09-27T14:42:35;99086.78;;;12.79;85.93
38054;BME280;23859;50.672;7.164;2022-09-27T14:45:27;99090.31;;;13.00;84.05
38054;BME280;23859;50.672;7.164;2022-09-27T14:47:56;99087.94;;;13.26;82.58
38054;BME280;23859;50.672;7.164;2022-09-27T14:50:26;99097.44;;;12.79;83.97
38054;BME280;23859;50.672;7.164;2022-09-27T14:52:57;99096.44;;;12.94;82.24
38054;BME280;23859;50.672;7.164;2022-09-27T14:55:28;99100.19;;;13.00;82.43
38054;BME280;23859;50.672;7.164;2022-09-27T14:57:57;99100.72;;;12.95;83.52
38054;BME280;23859;50.672;7.164;2022-09-27T15:00:29;99103.75;;;13.07;82.70
38054;BME280;23859;50.672;7.164;2022-09-27T15:02:58;99100.19;;;13.00;83.65
38054;BME280;23859;50.672;7.164;2022-09-27T15:05:28;99104.50;;;13.01;83.96
38054;BME280;23859;50.672;7.164;2022-09-27T15:07:56;99098.19;;;13.23;82.86
38054;BME280;23859;50.672;7.164;2022-09-27T15:10:26;99108.63;;;13.03;81.97
38054;BME280;23859;50.672;7.164;2022-09-27T15:12:54;99106.66;;;12.91;83.51
38054;BME280;23859;50.672;7.164;2022-09-27T15:15:27;99094.69;;;12.87;83.79
38054;BME280;23859;50.672;7.164;2022-09-27T15:17:56;99098.53;;;13.20;85.31
38054;BME280;23859;50.672;7.164;2022-09-27T15:20:33;99092.06;;;13.29;83.50
38054;BME280;23859;50.672;7.164;2022-09-27T15:23:03;99101.09;;;13.28;83.26
38054;BME280;23859;50.672;7.164;2022-09-27T15:25:36;99102.19;;;12.98;79.64
38054;BME280;23859;50.672;7.164;2022-09-27T15:30:39;99099.53;;;12.98;82.96
38054;BME280;23859;50.672;7.164;2022-09-27T15:33:17;99099.66;;;12.90;83.13
38054;BME280;23859;50.672;7.164;2022-09-27T15:35:51;99100.44;;;13.05;84.96
38054;BME280;23859;50.672;7.164;2022-09-27T15:38:42;99102.97;;;12.92;85.25
38054;BME280;23859;50.672;7.164;2022-09-27T15:41:16;99107.44;;;13.06;82.96
38054;BME280;23859;50.672;7.164;2022-09-27T15:43:48;99124.97;;;13.15;81.88